Patricia, South Dakota
Current Conditions -  °F | °C
As of 2:52 PM on Monday 26 Jan 2015 (Local Time) from KIEN Reporting Station
Clear Clear  
Wind Chill: 63°   Ceiling: Unl
Heat Index: 63°   Visibility: 10mi
Dew Point: 32°   Wind: 6mph
Humidity: 31%   Direction: 260°W
Pressure: 30.05"   Gusts: NA
Location:  43.2013°N, 101.679°W
Report Text: KIEN 262152Z AUTO 26005KT 10SM CLR 17/00 A3005 RMK AO2 SLP173 T01720000
Loading
Personal Weather Stations






























Interactive Weather Map New forecast layout! Learn more

10-Day Weather Forecast

Advertisements
Track Severe Weather on mobile